Cresco, Iowa
Current Conditions -  °F | °C
As of 2:55 AM on Wednesday 22 Oct 2014 (Local Time) from KDEH Reporting Station
Clear Clear  
Wind Chill: 31°   Ceiling: Unl
Heat Index: 37°   Visibility: 10mi
Dew Point: 36°   Wind: 8mph
Humidity: 93%   Direction: 140°SE
Pressure: 30.24"   Gusts: 16mph
Location:  43.38°N, 92.11°W
Report Text: KDEH 220755Z AUTO 14007G14KT 10SM CLR 03/02 A3024 RMK AO2
Loading
Personal Weather Stations






























Interactive Weather Map
Tropical Storm Tracking
New forecast layout! Learn more

10-Day Weather Forecast

Advertisements
Track Severe Weather on mobile